sensor_id;sensor_type;location;lat;lon;timestamp;P1;durP1;ratioP1;P2;durP2;ratioP2
12848;SDS011;6493;50.928;7.172;2024-01-30T00:02:42;4.00;;;2.77;;
12848;SDS011;6493;50.928;7.172;2024-01-30T00:07:47;3.80;;;2.97;;
12848;SDS011;6493;50.928;7.172;2024-01-30T00:12:51;3.80;;;3.07;;
12848;SDS011;6493;50.928;7.172;2024-01-30T00:17:56;4.53;;;3.37;;
12848;SDS011;6493;50.928;7.172;2024-01-30T00:23:00;3.67;;;3.37;;
12848;SDS011;6493;50.928;7.172;2024-01-30T00:28:04;5.63;;;3.43;;
12848;SDS011;6493;50.928;7.172;2024-01-30T00:33:09;3.47;;;3.17;;
12848;SDS011;6493;50.928;7.172;2024-01-30T00:38:13;4.53;;;3.50;;
12848;SDS011;6493;50.928;7.172;2024-01-30T00:43:17;3.70;;;3.37;;
12848;SDS011;6493;50.928;7.172;2024-01-30T00:48:24;5.63;;;3.30;;
12848;SDS011;6493;50.928;7.172;2024-01-30T00:53:28;4.10;;;3.60;;
12848;SDS011;6493;50.928;7.172;2024-01-30T00:58:31;3.20;;;2.90;;
12848;SDS011;6493;50.928;7.172;2024-01-30T01:03:36;4.40;;;3.70;;
12848;SDS011;6493;50.928;7.172;2024-01-30T01:08:42;3.77;;;3.23;;
12848;SDS011;6493;50.928;7.172;2024-01-30T01:13:47;3.63;;;2.93;;
12848;SDS011;6493;50.928;7.172;2024-01-30T01:18:52;2.93;;;2.70;;
12848;SDS011;6493;50.928;7.172;2024-01-30T01:23:56;3.57;;;3.23;;
12848;SDS011;6493;50.928;7.172;2024-01-30T01:29:00;3.67;;;2.93;;
12848;SDS011;6493;50.928;7.172;2024-01-30T01:34:05;4.30;;;2.80;;
12848;SDS011;6493;50.928;7.172;2024-01-30T01:39:09;4.57;;;2.87;;
12848;SDS011;6493;50.928;7.172;2024-01-30T01:44:12;3.03;;;2.60;;
12848;SDS011;6493;50.928;7.172;2024-01-30T01:49:17;3.63;;;3.10;;
12848;SDS011;6493;50.928;7.172;2024-01-30T01:54:22;4.03;;;3.13;;
12848;SDS011;6493;50.928;7.172;2024-01-30T01:59:28;3.00;;;2.63;;
12848;SDS011;6493;50.928;7.172;2024-01-30T02:04:33;3.13;;;2.70;;
12848;SDS011;6493;50.928;7.172;2024-01-30T02:09:37;3.30;;;2.73;;
12848;SDS011;6493;50.928;7.172;2024-01-30T02:14:44;4.97;;;3.40;;
12848;SDS011;6493;50.928;7.172;2024-01-30T02:19:49;4.33;;;3.20;;
12848;SDS011;6493;50.928;7.172;2024-01-30T02:24:54;3.20;;;2.30;;
12848;SDS011;6493;50.928;7.172;2024-01-30T02:29:58;4.20;;;2.87;;
12848;SDS011;6493;50.928;7.172;2024-01-30T02:35:02;2.77;;;2.30;;
12848;SDS011;6493;50.928;7.172;2024-01-30T02:40:08;3.07;;;2.10;;
12848;SDS011;6493;50.928;7.172;2024-01-30T02:45:12;3.03;;;2.40;;
12848;SDS011;6493;50.928;7.172;2024-01-30T02:50:16;2.83;;;2.50;;
12848;SDS011;6493;50.928;7.172;2024-01-30T02:55:21;1.97;;;1.77;;
12848;SDS011;6493;50.928;7.172;2024-01-30T03:00:25;1.77;;;1.40;;
12848;SDS011;6493;50.928;7.172;2024-01-30T03:05:29;2.27;;;1.60;;
12848;SDS011;6493;50.928;7.172;2024-01-30T03:10:34;2.07;;;1.87;;
12848;SDS011;6493;50.928;7.172;2024-01-30T03:15:38;3.73;;;2.60;;
12848;SDS011;6493;50.928;7.172;2024-01-30T03:20:41;3.93;;;2.90;;
12848;SDS011;6493;50.928;7.172;2024-01-30T03:25:47;2.97;;;2.67;;
12848;SDS011;6493;50.928;7.172;2024-01-30T03:30:50;3.63;;;3.00;;
12848;SDS011;6493;50.928;7.172;2024-01-30T03:35:54;3.10;;;2.60;;
12848;SDS011;6493;50.928;7.172;2024-01-30T03:40:59;3.73;;;3.07;;
12848;SDS011;6493;50.928;7.172;2024-01-30T03:46:03;4.10;;;3.40;;
12848;SDS011;6493;50.928;7.172;2024-01-30T03:51:07;3.00;;;2.70;;
12848;SDS011;6493;50.928;7.172;2024-01-30T03:56:19;4.97;;;3.37;;
12848;SDS011;6493;50.928;7.172;2024-01-30T04:01:22;3.70;;;2.40;;
12848;SDS011;6493;50.928;7.172;2024-01-30T04:06:27;4.10;;;2.70;;
12848;SDS011;6493;50.928;7.172;2024-01-30T04:11:32;2.43;;;2.20;;
12848;SDS011;6493;50.928;7.172;2024-01-30T04:16:35;3.73;;;2.50;;
12848;SDS011;6493;50.928;7.172;2024-01-30T04:21:39;2.73;;;2.53;;
12848;SDS011;6493;50.928;7.172;2024-01-30T04:26:44;3.03;;;2.67;;
12848;SDS011;6493;50.928;7.172;2024-01-30T04:31:48;3.80;;;3.07;;
12848;SDS011;6493;50.928;7.172;2024-01-30T04:36:51;3.53;;;2.87;;
12848;SDS011;6493;50.928;7.172;2024-01-30T04:41:56;3.87;;;2.10;;
12848;SDS011;6493;50.928;7.172;2024-01-30T04:47:01;3.37;;;2.90;;
12848;SDS011;6493;50.928;7.172;2024-01-30T04:52:05;2.67;;;2.33;;
12848;SDS011;6493;50.928;7.172;2024-01-30T04:57:10;3.07;;;2.70;;
12848;SDS011;6493;50.928;7.172;2024-01-30T05:02:14;4.53;;;2.83;;
12848;SDS011;6493;50.928;7.172;2024-01-30T05:07:18;3.20;;;2.90;;
12848;SDS011;6493;50.928;7.172;2024-01-30T05:12:23;3.43;;;3.07;;
12848;SDS011;6493;50.928;7.172;2024-01-30T05:17:27;4.13;;;2.90;;
12848;SDS011;6493;50.928;7.172;2024-01-30T05:22:30;2.80;;;2.47;;
12848;SDS011;6493;50.928;7.172;2024-01-30T05:27:35;2.60;;;2.37;;
12848;SDS011;6493;50.928;7.172;2024-01-30T05:32:39;2.80;;;2.60;;
12848;SDS011;6493;50.928;7.172;2024-01-30T05:37:43;4.93;;;3.03;;
12848;SDS011;6493;50.928;7.172;2024-01-30T05:42:48;2.90;;;2.17;;
12848;SDS011;6493;50.928;7.172;2024-01-30T05:47:52;3.47;;;2.67;;
12848;SDS011;6493;50.928;7.172;2024-01-30T05:52:56;3.90;;;2.40;;
12848;SDS011;6493;50.928;7.172;2024-01-30T05:58:01;4.00;;;2.53;;
12848;SDS011;6493;50.928;7.172;2024-01-30T06:03:05;3.63;;;2.70;;
12848;SDS011;6493;50.928;7.172;2024-01-30T06:08:09;3.00;;;2.70;;
12848;SDS011;6493;50.928;7.172;2024-01-30T06:13:14;3.83;;;3.43;;
12848;SDS011;6493;50.928;7.172;2024-01-30T06:18:18;4.83;;;3.23;;
12848;SDS011;6493;50.928;7.172;2024-01-30T06:23:22;4.40;;;2.87;;
12848;SDS011;6493;50.928;7.172;2024-01-30T06:28:27;4.23;;;3.47;;
12848;SDS011;6493;50.928;7.172;2024-01-30T06:33:31;3.60;;;2.77;;
12848;SDS011;6493;50.928;7.172;2024-01-30T06:38:34;4.00;;;3.20;;
12848;SDS011;6493;50.928;7.172;2024-01-30T06:43:40;3.23;;;2.80;;
12848;SDS011;6493;50.928;7.172;2024-01-30T06:48:43;3.37;;;2.70;;
12848;SDS011;6493;50.928;7.172;2024-01-30T06:53:47;3.67;;;3.10;;
12848;SDS011;6493;50.928;7.172;2024-01-30T06:58:53;3.67;;;3.13;;
12848;SDS011;6493;50.928;7.172;2024-01-30T07:03:56;3.80;;;3.13;;
12848;SDS011;6493;50.928;7.172;2024-01-30T07:09:00;3.87;;;3.43;;
12848;SDS011;6493;50.928;7.172;2024-01-30T07:14:07;4.93;;;3.60;;
12848;SDS011;6493;50.928;7.172;2024-01-30T07:19:12;9.40;;;4.77;;
12848;SDS011;6493;50.928;7.172;2024-01-30T07:24:16;5.47;;;4.00;;
12848;SDS011;6493;50.928;7.172;2024-01-30T07:29:21;5.00;;;4.20;;
12848;SDS011;6493;50.928;7.172;2024-01-30T07:34:24;5.77;;;3.80;;
12848;SDS011;6493;50.928;7.172;2024-01-30T07:39:29;4.40;;;3.90;;
12848;SDS011;6493;50.928;7.172;2024-01-30T07:44:34;4.07;;;3.53;;
12848;SDS011;6493;50.928;7.172;2024-01-30T07:49:38;5.10;;;3.47;;
12848;SDS011;6493;50.928;7.172;2024-01-30T07:54:42;2.60;;;2.40;;
12848;SDS011;6493;50.928;7.172;2024-01-30T08:06:09;5.90;;;3.40;;
12848;SDS011;6493;50.928;7.172;2024-01-30T08:11:13;4.37;;;3.50;;
12848;SDS011;6493;50.928;7.172;2024-01-30T08:16:17;4.10;;;3.70;;
12848;SDS011;6493;50.928;7.172;2024-01-30T08:21:22;4.13;;;3.00;;
12848;SDS011;6493;50.928;7.172;2024-01-30T08:26:25;6.67;;;3.77;;
12848;SDS011;6493;50.928;7.172;2024-01-30T08:31:29;4.00;;;3.33;;
12848;SDS011;6493;50.928;7.172;2024-01-30T08:36:34;4.43;;;3.47;;
12848;SDS011;6493;50.928;7.172;2024-01-30T08:41:37;3.90;;;3.10;;
12848;SDS011;6493;50.928;7.172;2024-01-30T08:46:41;4.00;;;3.50;;
12848;SDS011;6493;50.928;7.172;2024-01-30T08:51:46;5.10;;;3.57;;
12848;SDS011;6493;50.928;7.172;2024-01-30T08:56:51;3.67;;;2.80;;
12848;SDS011;6493;50.928;7.172;2024-01-30T09:01:55;4.57;;;3.57;;
12848;SDS011;6493;50.928;7.172;2024-01-30T09:07:14;4.73;;;3.40;;
12848;SDS011;6493;50.928;7.172;2024-01-30T09:12:18;5.30;;;4.13;;
12848;SDS011;6493;50.928;7.172;2024-01-30T09:17:21;3.50;;;2.83;;
12848;SDS011;6493;50.928;7.172;2024-01-30T09:22:26;3.73;;;3.00;;
12848;SDS011;6493;50.928;7.172;2024-01-30T09:27:30;3.87;;;3.20;;
12848;SDS011;6493;50.928;7.172;2024-01-30T09:32:34;3.23;;;2.93;;
12848;SDS011;6493;50.928;7.172;2024-01-30T09:37:39;5.43;;;3.40;;
12848;SDS011;6493;50.928;7.172;2024-01-30T09:42:43;4.23;;;2.90;;
12848;SDS011;6493;50.928;7.172;2024-01-30T09:47:49;4.10;;;2.80;;
12848;SDS011;6493;50.928;7.172;2024-01-30T09:52:55;3.20;;;2.80;;
12848;SDS011;6493;50.928;7.172;2024-01-30T09:58:00;3.53;;;2.83;;
12848;SDS011;6493;50.928;7.172;2024-01-30T10:03:04;3.93;;;2.50;;
12848;SDS011;6493;50.928;7.172;2024-01-30T10:08:09;3.77;;;3.30;;
12848;SDS011;6493;50.928;7.172;2024-01-30T10:13:13;3.30;;;2.60;;
12848;SDS011;6493;50.928;7.172;2024-01-30T10:18:16;3.53;;;2.30;;
12848;SDS011;6493;50.928;7.172;2024-01-30T10:23:22;2.90;;;2.37;;
12848;SDS011;6493;50.928;7.172;2024-01-30T10:28:26;5.23;;;3.13;;
12848;SDS011;6493;50.928;7.172;2024-01-30T10:33:31;3.67;;;2.97;;
12848;SDS011;6493;50.928;7.172;2024-01-30T10:38:37;4.50;;;3.37;;
12848;SDS011;6493;50.928;7.172;2024-01-30T10:43:47;4.67;;;3.00;;
12848;SDS011;6493;50.928;7.172;2024-01-30T10:48:58;3.83;;;2.30;;
12848;SDS011;6493;50.928;7.172;2024-01-30T10:54:04;2.20;;;2.00;;
12848;SDS011;6493;50.928;7.172;2024-01-30T10:59:09;3.10;;;2.80;;
12848;SDS011;6493;50.928;7.172;2024-01-30T11:04:15;3.47;;;2.70;;
12848;SDS011;6493;50.928;7.172;2024-01-30T11:09:21;2.53;;;2.00;;
12848;SDS011;6493;50.928;7.172;2024-01-30T11:14:25;3.20;;;2.60;;
12848;SDS011;6493;50.928;7.172;2024-01-30T11:19:30;3.83;;;2.30;;
12848;SDS011;6493;50.928;7.172;2024-01-30T11:24:45;4.33;;;2.30;;
12848;SDS011;6493;50.928;7.172;2024-01-30T11:29:50;4.27;;;2.10;;
12848;SDS011;6493;50.928;7.172;2024-01-30T11:34:54;3.93;;;2.60;;
12848;SDS011;6493;50.928;7.172;2024-01-30T11:40:00;3.53;;;2.03;;
12848;SDS011;6493;50.928;7.172;2024-01-30T11:45:06;2.40;;;1.67;;
12848;SDS011;6493;50.928;7.172;2024-01-30T11:50:10;2.30;;;1.60;;
12848;SDS011;6493;50.928;7.172;2024-01-30T11:55:15;3.73;;;2.20;;
12848;SDS011;6493;50.928;7.172;2024-01-30T12:00:20;2.80;;;2.40;;
12848;SDS011;6493;50.928;7.172;2024-01-30T12:05:24;1.80;;;1.70;;
12848;SDS011;6493;50.928;7.172;2024-01-30T12:10:30;3.80;;;2.10;;
12848;SDS011;6493;50.928;7.172;2024-01-30T12:15:34;2.13;;;1.83;;
12848;SDS011;6493;50.928;7.172;2024-01-30T12:20:38;2.37;;;1.97;;
12848;SDS011;6493;50.928;7.172;2024-01-30T12:25:43;2.20;;;2.00;;
12848;SDS011;6493;50.928;7.172;2024-01-30T12:30:47;2.40;;;2.03;;
12848;SDS011;6493;50.928;7.172;2024-01-30T12:35:51;2.23;;;2.00;;
12848;SDS011;6493;50.928;7.172;2024-01-30T12:41:06;2.20;;;1.83;;
12848;SDS011;6493;50.928;7.172;2024-01-30T12:46:10;2.57;;;2.00;;
12848;SDS011;6493;50.928;7.172;2024-01-30T12:51:14;1.53;;;1.30;;
12848;SDS011;6493;50.928;7.172;2024-01-30T12:56:19;1.30;;;1.20;;
12848;SDS011;6493;50.928;7.172;2024-01-30T13:01:22;1.50;;;1.27;;
12848;SDS011;6493;50.928;7.172;2024-01-30T13:06:26;1.40;;;1.30;;
12848;SDS011;6493;50.928;7.172;2024-01-30T13:11:34;3.03;;;1.57;;
12848;SDS011;6493;50.928;7.172;2024-01-30T13:16:37;1.37;;;1.27;;
12848;SDS011;6493;50.928;7.172;2024-01-30T13:21:42;1.23;;;1.10;;
12848;SDS011;6493;50.928;7.172;2024-01-30T13:26:48;1.80;;;1.30;;
12848;SDS011;6493;50.928;7.172;2024-01-30T13:31:51;1.07;;;0.90;;
12848;SDS011;6493;50.928;7.172;2024-01-30T13:36:55;1.03;;;0.93;;
12848;SDS011;6493;50.928;7.172;2024-01-30T13:42:00;1.30;;;1.00;;
12848;SDS011;6493;50.928;7.172;2024-01-30T13:47:04;0.90;;;0.90;;
12848;SDS011;6493;50.928;7.172;2024-01-30T13:52:08;2.07;;;0.80;;
12848;SDS011;6493;50.928;7.172;2024-01-30T13:57:13;1.10;;;0.80;;
12848;SDS011;6493;50.928;7.172;2024-01-30T14:02:17;1.80;;;1.23;;
12848;SDS011;6493;50.928;7.172;2024-01-30T14:07:20;1.67;;;1.33;;
12848;SDS011;6493;50.928;7.172;2024-01-30T14:12:26;1.37;;;1.00;;
12848;SDS011;6493;50.928;7.172;2024-01-30T14:17:30;1.00;;;0.90;;
12848;SDS011;6493;50.928;7.172;2024-01-30T14:22:34;1.23;;;0.90;;
12848;SDS011;6493;50.928;7.172;2024-01-30T14:27:39;0.80;;;0.80;;
12848;SDS011;6493;50.928;7.172;2024-01-30T14:32:42;1.00;;;0.67;;
12848;SDS011;6493;50.928;7.172;2024-01-30T14:37:47;0.80;;;0.80;;
12848;SDS011;6493;50.928;7.172;2024-01-30T14:42:52;1.10;;;1.00;;
12848;SDS011;6493;50.928;7.172;2024-01-30T14:47:56;1.23;;;1.00;;
12848;SDS011;6493;50.928;7.172;2024-01-30T14:53:01;1.70;;;0.87;;
12848;SDS011;6493;50.928;7.172;2024-01-30T14:58:06;1.03;;;0.93;;
12848;SDS011;6493;50.928;7.172;2024-01-30T15:03:09;1.67;;;1.13;;
12848;SDS011;6493;50.928;7.172;2024-01-30T15:08:13;1.33;;;1.10;;
12848;SDS011;6493;50.928;7.172;2024-01-30T15:13:18;1.60;;;1.10;;
12848;SDS011;6493;50.928;7.172;2024-01-30T15:18:22;1.60;;;0.90;;
12848;SDS011;6493;50.928;7.172;2024-01-30T15:23:26;1.00;;;0.93;;
12848;SDS011;6493;50.928;7.172;2024-01-30T15:28:35;2.93;;;1.57;;
12848;SDS011;6493;50.928;7.172;2024-01-30T15:33:40;1.70;;;1.60;;
12848;SDS011;6493;50.928;7.172;2024-01-30T15:38:44;1.20;;;1.10;;
12848;SDS011;6493;50.928;7.172;2024-01-30T15:43:49;1.50;;;1.10;;
12848;SDS011;6493;50.928;7.172;2024-01-30T15:48:53;1.60;;;1.30;;
12848;SDS011;6493;50.928;7.172;2024-01-30T15:53:57;1.30;;;1.00;;
12848;SDS011;6493;50.928;7.172;2024-01-30T15:59:02;1.13;;;1.03;;
12848;SDS011;6493;50.928;7.172;2024-01-30T16:04:05;1.23;;;1.13;;
12848;SDS011;6493;50.928;7.172;2024-01-30T16:09:09;1.70;;;1.33;;
12848;SDS011;6493;50.928;7.172;2024-01-30T16:14:14;1.40;;;1.10;;
12848;SDS011;6493;50.928;7.172;2024-01-30T16:19:18;2.07;;;1.37;;
12848;SDS011;6493;50.928;7.172;2024-01-30T16:24:23;1.97;;;1.40;;
12848;SDS011;6493;50.928;7.172;2024-01-30T16:29:29;2.43;;;1.50;;
12848;SDS011;6493;50.928;7.172;2024-01-30T16:34:34;1.90;;;1.33;;
12848;SDS011;6493;50.928;7.172;2024-01-30T16:39:38;2.47;;;1.90;;
12848;SDS011;6493;50.928;7.172;2024-01-30T16:44:43;2.87;;;1.57;;
12848;SDS011;6493;50.928;7.172;2024-01-30T16:49:47;2.80;;;1.73;;
12848;SDS011;6493;50.928;7.172;2024-01-30T16:54:51;1.73;;;1.30;;
12848;SDS011;6493;50.928;7.172;2024-01-30T16:59:56;1.70;;;1.10;;
12848;SDS011;6493;50.928;7.172;2024-01-30T17:05:00;1.20;;;1.10;;
12848;SDS011;6493;50.928;7.172;2024-01-30T17:10:21;1.47;;;1.07;;
12848;SDS011;6493;50.928;7.172;2024-01-30T17:15:26;1.13;;;0.87;;
12848;SDS011;6493;50.928;7.172;2024-01-30T17:20:30;1.00;;;0.70;;
12848;SDS011;6493;50.928;7.172;2024-01-30T17:25:33;1.00;;;0.63;;
12848;SDS011;6493;50.928;7.172;2024-01-30T17:30:39;0.40;;;0.40;;
12848;SDS011;6493;50.928;7.172;2024-01-30T17:35:42;0.40;;;0.40;;
12848;SDS011;6493;50.928;7.172;2024-01-30T17:40:47;0.87;;;0.50;;
12848;SDS011;6493;50.928;7.172;2024-01-30T17:46:07;1.63;;;0.60;;
12848;SDS011;6493;50.928;7.172;2024-01-30T17:51:11;1.33;;;0.47;;
12848;SDS011;6493;50.928;7.172;2024-01-30T17:56:15;0.40;;;0.30;;
12848;SDS011;6493;50.928;7.172;2024-01-30T18:01:20;0.63;;;0.43;;
12848;SDS011;6493;50.928;7.172;2024-01-30T18:06:23;0.47;;;0.30;;
12848;SDS011;6493;50.928;7.172;2024-01-30T18:11:27;0.47;;;0.40;;
12848;SDS011;6493;50.928;7.172;2024-01-30T18:16:32;3.23;;;0.50;;
12848;SDS011;6493;50.928;7.172;2024-01-30T18:21:36;1.50;;;0.30;;
12848;SDS011;6493;50.928;7.172;2024-01-30T18:26:40;0.70;;;0.40;;
12848;SDS011;6493;50.928;7.172;2024-01-30T18:31:45;0.50;;;0.30;;
12848;SDS011;6493;50.928;7.172;2024-01-30T18:36:49;0.60;;;0.30;;
12848;SDS011;6493;50.928;7.172;2024-01-30T18:41:53;0.60;;;0.40;;
12848;SDS011;6493;50.928;7.172;2024-01-30T18:46:58;0.80;;;0.50;;
12848;SDS011;6493;50.928;7.172;2024-01-30T18:52:01;0.63;;;0.30;;
12848;SDS011;6493;50.928;7.172;2024-01-30T18:57:06;0.77;;;0.43;;
12848;SDS011;6493;50.928;7.172;2024-01-30T19:02:11;0.73;;;0.30;;
12848;SDS011;6493;50.928;7.172;2024-01-30T19:07:15;0.30;;;0.30;;
12848;SDS011;6493;50.928;7.172;2024-01-30T19:12:19;0.80;;;0.30;;
12848;SDS011;6493;50.928;7.172;2024-01-30T19:17:24;0.47;;;0.30;;
12848;SDS011;6493;50.928;7.172;2024-01-30T19:22:28;0.67;;;0.50;;
12848;SDS011;6493;50.928;7.172;2024-01-30T19:27:32;0.23;;;0.23;;
12848;SDS011;6493;50.928;7.172;2024-01-30T19:32:37;0.97;;;0.23;;
12848;SDS011;6493;50.928;7.172;2024-01-30T19:37:40;0.30;;;0.23;;
12848;SDS011;6493;50.928;7.172;2024-01-30T19:42:44;0.50;;;0.30;;
12848;SDS011;6493;50.928;7.172;2024-01-30T19:47:51;1.03;;;0.30;;
12848;SDS011;6493;50.928;7.172;2024-01-30T19:52:55;1.10;;;0.40;;
12848;SDS011;6493;50.928;7.172;2024-01-30T19:57:58;0.47;;;0.20;;
12848;SDS011;6493;50.928;7.172;2024-01-30T20:03:04;0.40;;;0.40;;
12848;SDS011;6493;50.928;7.172;2024-01-30T20:08:08;0.70;;;0.30;;
12848;SDS011;6493;50.928;7.172;2024-01-30T20:13:11;1.00;;;0.47;;
12848;SDS011;6493;50.928;7.172;2024-01-30T20:18:16;0.50;;;0.50;;
12848;SDS011;6493;50.928;7.172;2024-01-30T20:23:20;0.40;;;0.40;;
12848;SDS011;6493;50.928;7.172;2024-01-30T20:28:24;1.90;;;0.57;;
12848;SDS011;6493;50.928;7.172;2024-01-30T20:33:30;0.73;;;0.43;;
12848;SDS011;6493;50.928;7.172;2024-01-30T20:38:36;1.27;;;0.53;;
12848;SDS011;6493;50.928;7.172;2024-01-30T20:43:42;0.93;;;0.53;;
12848;SDS011;6493;50.928;7.172;2024-01-30T20:48:47;0.70;;;0.50;;
12848;SDS011;6493;50.928;7.172;2024-01-30T20:53:51;0.70;;;0.60;;
12848;SDS011;6493;50.928;7.172;2024-01-30T20:58:55;0.50;;;0.50;;
12848;SDS011;6493;50.928;7.172;2024-01-30T21:04:00;0.63;;;0.50;;
12848;SDS011;6493;50.928;7.172;2024-01-30T21:09:04;0.47;;;0.43;;
12848;SDS011;6493;50.928;7.172;2024-01-30T21:14:08;0.57;;;0.40;;
12848;SDS011;6493;50.928;7.172;2024-01-30T21:19:16;0.50;;;0.40;;
12848;SDS011;6493;50.928;7.172;2024-01-30T21:24:20;0.87;;;0.40;;
12848;SDS011;6493;50.928;7.172;2024-01-30T21:29:24;0.30;;;0.30;;
12848;SDS011;6493;50.928;7.172;2024-01-30T21:34:29;1.00;;;0.50;;
12848;SDS011;6493;50.928;7.172;2024-01-30T21:39:33;0.60;;;0.50;;
12848;SDS011;6493;50.928;7.172;2024-01-30T21:44:36;0.43;;;0.40;;
12848;SDS011;6493;50.928;7.172;2024-01-30T21:49:43;0.57;;;0.40;;
12848;SDS011;6493;50.928;7.172;2024-01-30T21:54:46;0.50;;;0.40;;
12848;SDS011;6493;50.928;7.172;2024-01-30T21:59:50;0.50;;;0.50;;
12848;SDS011;6493;50.928;7.172;2024-01-30T22:04:55;1.03;;;0.60;;
12848;SDS011;6493;50.928;7.172;2024-01-30T22:09:59;0.70;;;0.50;;
12848;SDS011;6493;50.928;7.172;2024-01-30T22:15:03;0.67;;;0.40;;
12848;SDS011;6493;50.928;7.172;2024-01-30T22:20:09;0.60;;;0.33;;
12848;SDS011;6493;50.928;7.172;2024-01-30T22:25:13;0.63;;;0.60;;
12848;SDS011;6493;50.928;7.172;2024-01-30T22:30:17;0.50;;;0.50;;
12848;SDS011;6493;50.928;7.172;2024-01-30T22:35:22;0.50;;;0.50;;
12848;SDS011;6493;50.928;7.172;2024-01-30T22:40:26;0.90;;;0.70;;
12848;SDS011;6493;50.928;7.172;2024-01-30T22:45:30;0.60;;;0.60;;
12848;SDS011;6493;50.928;7.172;2024-01-30T22:50:35;0.60;;;0.60;;
12848;SDS011;6493;50.928;7.172;2024-01-30T22:55:38;0.60;;;0.60;;
12848;SDS011;6493;50.928;7.172;2024-01-30T23:00:42;0.63;;;0.63;;
12848;SDS011;6493;50.928;7.172;2024-01-30T23:05:47;0.90;;;0.60;;
12848;SDS011;6493;50.928;7.172;2024-01-30T23:10:51;0.80;;;0.80;;
12848;SDS011;6493;50.928;7.172;2024-01-30T23:15:54;0.70;;;0.70;;
12848;SDS011;6493;50.928;7.172;2024-01-30T23:20:59;1.00;;;0.90;;
12848;SDS011;6493;50.928;7.172;2024-01-30T23:26:03;0.90;;;0.87;;
12848;SDS011;6493;50.928;7.172;2024-01-30T23:31:07;2.10;;;0.87;;
12848;SDS011;6493;50.928;7.172;2024-01-30T23:36:12;2.20;;;1.30;;
12848;SDS011;6493;50.928;7.172;2024-01-30T23:41:15;0.83;;;0.73;;
12848;SDS011;6493;50.928;7.172;2024-01-30T23:46:19;1.03;;;0.90;;
12848;SDS011;6493;50.928;7.172;2024-01-30T23:51:24;0.80;;;0.80;;
12848;SDS011;6493;50.928;7.172;2024-01-30T23:56:28;1.40;;;0.90;;
